sensor_id;sensor_type;location;lat;lon;timestamp;temperature;humidity
52415;DHT22;38340;52.964;6.086;2023-07-28T00:01:24;18.10;99.90
52415;DHT22;38340;52.964;6.086;2023-07-28T00:03:50;18.20;99.90
52415;DHT22;38340;52.964;6.086;2023-07-28T00:06:16;18.20;99.90
52415;DHT22;38340;52.964;6.086;2023-07-28T00:08:41;18.20;99.90
52415;DHT22;38340;52.964;6.086;2023-07-28T00:11:14;18.10;99.90
52415;DHT22;38340;52.964;6.086;2023-07-28T00:13:41;18.10;99.90
52415;DHT22;38340;52.964;6.086;2023-07-28T00:16:07;18.20;99.90
52415;DHT22;38340;52.964;6.086;2023-07-28T00:18:34;18.10;99.90
52415;DHT22;38340;52.964;6.086;2023-07-28T00:20:59;18.20;99.90
52415;DHT22;38340;52.964;6.086;2023-07-28T00:23:25;18.20;99.90
52415;DHT22;38340;52.964;6.086;2023-07-28T00:25:51;18.20;99.90
52415;DHT22;38340;52.964;6.086;2023-07-28T00:28:17;18.20;99.90
52415;DHT22;38340;52.964;6.086;2023-07-28T00:30:43;18.10;99.90
52415;DHT22;38340;52.964;6.086;2023-07-28T00:33:08;18.10;99.90
52415;DHT22;38340;52.964;6.086;2023-07-28T00:35:34;18.10;99.90
52415;DHT22;38340;52.964;6.086;2023-07-28T00:38:00;18.10;99.90
52415;DHT22;38340;52.964;6.086;2023-07-28T00:40:25;18.10;99.90
52415;DHT22;38340;52.964;6.086;2023-07-28T00:42:51;18.10;99.90
52415;DHT22;38340;52.964;6.086;2023-07-28T00:45:17;18.10;99.90
52415;DHT22;38340;52.964;6.086;2023-07-28T00:47:43;18.10;99.90
52415;DHT22;38340;52.964;6.086;2023-07-28T00:50:09;18.20;99.90
52415;DHT22;38340;52.964;6.086;2023-07-28T00:52:36;18.10;99.90
52415;DHT22;38340;52.964;6.086;2023-07-28T00:55:02;18.10;99.90
52415;DHT22;38340;52.964;6.086;2023-07-28T00:57:28;18.10;99.90
52415;DHT22;38340;52.964;6.086;2023-07-28T00:59:54;18.10;99.90
52415;DHT22;38340;52.964;6.086;2023-07-28T01:02:20;18.10;99.90
52415;DHT22;38340;52.964;6.086;2023-07-28T01:04:47;18.10;99.90
52415;DHT22;38340;52.964;6.086;2023-07-28T01:10:40;18.10;99.90
52415;DHT22;38340;52.964;6.086;2023-07-28T01:13:06;18.10;99.90
52415;DHT22;38340;52.964;6.086;2023-07-28T01:15:31;18.10;99.90
52415;DHT22;38340;52.964;6.086;2023-07-28T01:17:57;18.10;99.90
52415;DHT22;38340;52.964;6.086;2023-07-28T01:20:24;18.10;99.90
52415;DHT22;38340;52.964;6.086;2023-07-28T01:23:13;18.20;99.90
52415;DHT22;38340;52.964;6.086;2023-07-28T01:26:10;18.10;99.90
52415;DHT22;38340;52.964;6.086;2023-07-28T01:28:37;18.10;99.90
52415;DHT22;38340;52.964;6.086;2023-07-28T01:31:06;18.20;99.90
52415;DHT22;38340;52.964;6.086;2023-07-28T01:33:32;18.10;99.90
52415;DHT22;38340;52.964;6.086;2023-07-28T01:35:58;18.10;99.90
52415;DHT22;38340;52.964;6.086;2023-07-28T01:38:29;18.20;99.90
52415;DHT22;38340;52.964;6.086;2023-07-28T01:40:55;18.10;99.90
52415;DHT22;38340;52.964;6.086;2023-07-28T01:43:21;18.20;99.90
52415;DHT22;38340;52.964;6.086;2023-07-28T01:45:46;18.10;99.90
52415;DHT22;38340;52.964;6.086;2023-07-28T01:48:12;18.10;99.90
52415;DHT22;38340;52.964;6.086;2023-07-28T01:50:38;18.20;99.90
52415;DHT22;38340;52.964;6.086;2023-07-28T01:53:05;18.20;99.90
52415;DHT22;38340;52.964;6.086;2023-07-28T01:55:31;18.20;99.90
52415;DHT22;38340;52.964;6.086;2023-07-28T01:57:59;18.20;99.90
52415;DHT22;38340;52.964;6.086;2023-07-28T02:00:25;18.10;99.90
52415;DHT22;38340;52.964;6.086;2023-07-28T02:02:52;18.20;99.90
52415;DHT22;38340;52.964;6.086;2023-07-28T02:05:18;18.10;99.90
52415;DHT22;38340;52.964;6.086;2023-07-28T02:07:44;18.10;99.90
52415;DHT22;38340;52.964;6.086;2023-07-28T02:10:09;18.10;99.90
52415;DHT22;38340;52.964;6.086;2023-07-28T02:12:36;18.10;99.90
52415;DHT22;38340;52.964;6.086;2023-07-28T02:15:03;18.10;99.90
52415;DHT22;38340;52.964;6.086;2023-07-28T02:17:29;18.10;99.90
52415;DHT22;38340;52.964;6.086;2023-07-28T02:19:55;18.00;99.90
52415;DHT22;38340;52.964;6.086;2023-07-28T02:22:20;18.10;99.90
52415;DHT22;38340;52.964;6.086;2023-07-28T02:24:46;18.10;99.90
52415;DHT22;38340;52.964;6.086;2023-07-28T02:27:12;18.10;99.90
52415;DHT22;38340;52.964;6.086;2023-07-28T02:29:37;18.00;99.90
52415;DHT22;38340;52.964;6.086;2023-07-28T02:32:03;18.00;99.90
52415;DHT22;38340;52.964;6.086;2023-07-28T02:34:29;18.10;99.90
52415;DHT22;38340;52.964;6.086;2023-07-28T02:36:54;18.10;99.90
52415;DHT22;38340;52.964;6.086;2023-07-28T02:39:20;18.10;99.90
52415;DHT22;38340;52.964;6.086;2023-07-28T02:41:47;18.10;99.90
52415;DHT22;38340;52.964;6.086;2023-07-28T02:44:12;18.00;99.90
52415;DHT22;38340;52.964;6.086;2023-07-28T02:46:38;18.00;99.90
52415;DHT22;38340;52.964;6.086;2023-07-28T02:49:04;18.00;99.90
52415;DHT22;38340;52.964;6.086;2023-07-28T02:51:30;18.00;99.90
52415;DHT22;38340;52.964;6.086;2023-07-28T02:53:56;18.00;99.90
52415;DHT22;38340;52.964;6.086;2023-07-28T02:56:22;18.00;99.90
52415;DHT22;38340;52.964;6.086;2023-07-28T02:58:48;18.00;99.90
52415;DHT22;38340;52.964;6.086;2023-07-28T03:01:14;18.10;99.90
52415;DHT22;38340;52.964;6.086;2023-07-28T03:03:39;18.00;99.90
52415;DHT22;38340;52.964;6.086;2023-07-28T03:06:05;18.10;99.90
52415;DHT22;38340;52.964;6.086;2023-07-28T03:08:31;18.10;99.90
52415;DHT22;38340;52.964;6.086;2023-07-28T03:10:57;18.10;99.90
52415;DHT22;38340;52.964;6.086;2023-07-28T03:13:23;18.10;99.90
52415;DHT22;38340;52.964;6.086;2023-07-28T03:15:49;18.10;99.90
52415;DHT22;38340;52.964;6.086;2023-07-28T03:18:16;18.10;99.90
52415;DHT22;38340;52.964;6.086;2023-07-28T03:20:41;18.10;99.90
52415;DHT22;38340;52.964;6.086;2023-07-28T03:23:07;18.10;99.90
52415;DHT22;38340;52.964;6.086;2023-07-28T03:25:33;18.10;99.90
52415;DHT22;38340;52.964;6.086;2023-07-28T03:27:58;18.10;99.90
52415;DHT22;38340;52.964;6.086;2023-07-28T03:30:24;18.00;99.90
52415;DHT22;38340;52.964;6.086;2023-07-28T03:32:50;18.00;99.90
52415;DHT22;38340;52.964;6.086;2023-07-28T03:35:15;18.00;99.90
52415;DHT22;38340;52.964;6.086;2023-07-28T03:37:41;18.00;99.90
52415;DHT22;38340;52.964;6.086;2023-07-28T03:40:07;18.00;99.90
52415;DHT22;38340;52.964;6.086;2023-07-28T03:42:33;18.00;99.90
52415;DHT22;38340;52.964;6.086;2023-07-28T03:44:59;18.00;99.90
52415;DHT22;38340;52.964;6.086;2023-07-28T03:47:25;18.00;99.90
52415;DHT22;38340;52.964;6.086;2023-07-28T03:49:50;18.00;99.90
52415;DHT22;38340;52.964;6.086;2023-07-28T03:52:16;18.00;99.90
52415;DHT22;38340;52.964;6.086;2023-07-28T03:54:42;18.10;99.90
52415;DHT22;38340;52.964;6.086;2023-07-28T03:57:09;18.00;99.90
52415;DHT22;38340;52.964;6.086;2023-07-28T03:59:35;18.00;99.90
52415;DHT22;38340;52.964;6.086;2023-07-28T04:02:00;18.10;99.90
52415;DHT22;38340;52.964;6.086;2023-07-28T04:04:26;18.10;99.90
52415;DHT22;38340;52.964;6.086;2023-07-28T04:06:52;18.10;99.90
52415;DHT22;38340;52.964;6.086;2023-07-28T04:09:21;18.10;99.90
52415;DHT22;38340;52.964;6.086;2023-07-28T04:11:46;18.00;99.90
52415;DHT22;38340;52.964;6.086;2023-07-28T04:14:12;18.00;99.90
52415;DHT22;38340;52.964;6.086;2023-07-28T04:16:38;18.10;99.90
52415;DHT22;38340;52.964;6.086;2023-07-28T04:19:04;18.00;99.90
52415;DHT22;38340;52.964;6.086;2023-07-28T04:21:30;18.10;99.90
52415;DHT22;38340;52.964;6.086;2023-07-28T04:23:55;18.10;99.90
52415;DHT22;38340;52.964;6.086;2023-07-28T04:26:23;18.10;99.90
52415;DHT22;38340;52.964;6.086;2023-07-28T04:28:49;18.10;99.90
52415;DHT22;38340;52.964;6.086;2023-07-28T04:31:15;18.20;99.90
52415;DHT22;38340;52.964;6.086;2023-07-28T04:33:43;18.10;99.90
52415;DHT22;38340;52.964;6.086;2023-07-28T04:36:09;18.20;99.90
52415;DHT22;38340;52.964;6.086;2023-07-28T04:38:35;18.20;99.90
52415;DHT22;38340;52.964;6.086;2023-07-28T04:41:01;18.20;99.90
52415;DHT22;38340;52.964;6.086;2023-07-28T04:43:27;18.20;99.90
52415;DHT22;38340;52.964;6.086;2023-07-28T04:45:53;18.20;99.90
52415;DHT22;38340;52.964;6.086;2023-07-28T04:48:18;18.20;99.90
52415;DHT22;38340;52.964;6.086;2023-07-28T04:50:44;18.20;99.90
52415;DHT22;38340;52.964;6.086;2023-07-28T04:53:10;18.20;99.90
52415;DHT22;38340;52.964;6.086;2023-07-28T04:55:36;18.20;99.90
52415;DHT22;38340;52.964;6.086;2023-07-28T04:58:01;18.20;99.90
52415;DHT22;38340;52.964;6.086;2023-07-28T05:00:27;18.20;99.90
52415;DHT22;38340;52.964;6.086;2023-07-28T05:02:53;18.30;99.90
52415;DHT22;38340;52.964;6.086;2023-07-28T05:05:19;18.20;99.90
52415;DHT22;38340;52.964;6.086;2023-07-28T05:07:45;18.20;99.90
52415;DHT22;38340;52.964;6.086;2023-07-28T05:10:11;18.20;99.90
52415;DHT22;38340;52.964;6.086;2023-07-28T05:12:36;18.30;99.90
52415;DHT22;38340;52.964;6.086;2023-07-28T05:15:02;18.30;99.90
52415;DHT22;38340;52.964;6.086;2023-07-28T05:17:28;18.30;99.90
52415;DHT22;38340;52.964;6.086;2023-07-28T05:19:53;18.30;99.90
52415;DHT22;38340;52.964;6.086;2023-07-28T05:22:19;18.30;99.90
52415;DHT22;38340;52.964;6.086;2023-07-28T05:24:45;18.40;99.90
52415;DHT22;38340;52.964;6.086;2023-07-28T05:27:11;18.40;99.90
52415;DHT22;38340;52.964;6.086;2023-07-28T05:29:37;18.40;99.90
52415;DHT22;38340;52.964;6.086;2023-07-28T05:32:03;18.50;99.90
52415;DHT22;38340;52.964;6.086;2023-07-28T05:34:29;18.50;99.90
52415;DHT22;38340;52.964;6.086;2023-07-28T05:36:56;18.60;99.90
52415;DHT22;38340;52.964;6.086;2023-07-28T05:39:21;18.50;99.90
52415;DHT22;38340;52.964;6.086;2023-07-28T05:41:47;18.60;99.90
52415;DHT22;38340;52.964;6.086;2023-07-28T05:44:13;18.60;99.90
52415;DHT22;38340;52.964;6.086;2023-07-28T05:46:39;18.60;99.90
52415;DHT22;38340;52.964;6.086;2023-07-28T05:49:05;18.60;99.90
52415;DHT22;38340;52.964;6.086;2023-07-28T05:51:31;18.70;99.90
52415;DHT22;38340;52.964;6.086;2023-07-28T05:53:56;18.60;99.90
52415;DHT22;38340;52.964;6.086;2023-07-28T05:56:22;18.70;99.90
52415;DHT22;38340;52.964;6.086;2023-07-28T05:58:48;18.80;99.90
52415;DHT22;38340;52.964;6.086;2023-07-28T06:01:14;18.90;99.90
52415;DHT22;38340;52.964;6.086;2023-07-28T06:03:40;18.90;99.90
52415;DHT22;38340;52.964;6.086;2023-07-28T06:06:05;18.90;99.90
52415;DHT22;38340;52.964;6.086;2023-07-28T06:08:31;18.80;99.90
52415;DHT22;38340;52.964;6.086;2023-07-28T06:10:57;18.70;99.90
52415;DHT22;38340;52.964;6.086;2023-07-28T06:13:23;18.70;99.90
52415;DHT22;38340;52.964;6.086;2023-07-28T06:15:48;18.80;99.90
52415;DHT22;38340;52.964;6.086;2023-07-28T06:18:14;18.70;99.90
52415;DHT22;38340;52.964;6.086;2023-07-28T06:20:42;18.70;99.90
52415;DHT22;38340;52.964;6.086;2023-07-28T06:23:08;18.70;99.90
52415;DHT22;38340;52.964;6.086;2023-07-28T06:25:34;18.80;99.90
52415;DHT22;38340;52.964;6.086;2023-07-28T06:28:00;18.80;99.90
52415;DHT22;38340;52.964;6.086;2023-07-28T06:30:26;18.80;99.90
52415;DHT22;38340;52.964;6.086;2023-07-28T06:32:51;18.90;99.90
52415;DHT22;38340;52.964;6.086;2023-07-28T06:35:17;18.90;99.90
52415;DHT22;38340;52.964;6.086;2023-07-28T06:37:43;18.90;99.90
52415;DHT22;38340;52.964;6.086;2023-07-28T06:40:09;18.90;99.90
52415;DHT22;38340;52.964;6.086;2023-07-28T06:42:36;19.00;99.90
52415;DHT22;38340;52.964;6.086;2023-07-28T06:45:03;19.10;99.90
52415;DHT22;38340;52.964;6.086;2023-07-28T06:47:29;19.20;99.90
52415;DHT22;38340;52.964;6.086;2023-07-28T06:49:55;19.30;99.90
52415;DHT22;38340;52.964;6.086;2023-07-28T06:52:20;19.40;99.90
52415;DHT22;38340;52.964;6.086;2023-07-28T06:54:46;19.50;99.90
52415;DHT22;38340;52.964;6.086;2023-07-28T06:57:14;19.80;99.90
52415;DHT22;38340;52.964;6.086;2023-07-28T06:59:41;20.10;99.90
52415;DHT22;38340;52.964;6.086;2023-07-28T07:02:07;20.20;99.90
52415;DHT22;38340;52.964;6.086;2023-07-28T07:04:33;20.30;99.90
52415;DHT22;38340;52.964;6.086;2023-07-28T07:06:58;20.40;99.90
52415;DHT22;38340;52.964;6.086;2023-07-28T07:09:24;20.70;99.90
52415;DHT22;38340;52.964;6.086;2023-07-28T07:11:50;20.90;99.90
52415;DHT22;38340;52.964;6.086;2023-07-28T07:14:16;20.80;99.90
52415;DHT22;38340;52.964;6.086;2023-07-28T07:16:42;20.70;99.90
52415;DHT22;38340;52.964;6.086;2023-07-28T07:19:08;20.70;99.90
52415;DHT22;38340;52.964;6.086;2023-07-28T07:21:36;20.90;99.90
52415;DHT22;38340;52.964;6.086;2023-07-28T07:24:03;20.90;99.90
52415;DHT22;38340;52.964;6.086;2023-07-28T07:26:29;21.10;99.90
52415;DHT22;38340;52.964;6.086;2023-07-28T07:28:57;21.20;99.90
52415;DHT22;38340;52.964;6.086;2023-07-28T07:31:23;21.30;99.90
52415;DHT22;38340;52.964;6.086;2023-07-28T07:33:49;21.30;99.90
52415;DHT22;38340;52.964;6.086;2023-07-28T07:36:19;21.40;99.90
52415;DHT22;38340;52.964;6.086;2023-07-28T07:38:45;21.10;99.90
52415;DHT22;38340;52.964;6.086;2023-07-28T07:41:12;21.10;99.90
52415;DHT22;38340;52.964;6.086;2023-07-28T07:43:38;21.30;99.90
52415;DHT22;38340;52.964;6.086;2023-07-28T07:46:04;21.40;99.90
52415;DHT22;38340;52.964;6.086;2023-07-28T07:48:30;21.40;99.90
52415;DHT22;38340;52.964;6.086;2023-07-28T07:50:56;21.60;99.90
52415;DHT22;38340;52.964;6.086;2023-07-28T07:53:21;21.60;99.90
52415;DHT22;38340;52.964;6.086;2023-07-28T07:55:48;21.50;99.90
52415;DHT22;38340;52.964;6.086;2023-07-28T07:58:14;21.60;99.90
52415;DHT22;38340;52.964;6.086;2023-07-28T08:00:40;21.90;99.90
52415;DHT22;38340;52.964;6.086;2023-07-28T08:03:06;21.80;99.90
52415;DHT22;38340;52.964;6.086;2023-07-28T08:05:32;21.80;99.90
52415;DHT22;38340;52.964;6.086;2023-07-28T08:07:57;21.90;99.90
52415;DHT22;38340;52.964;6.086;2023-07-28T08:10:23;21.90;99.90
52415;DHT22;38340;52.964;6.086;2023-07-28T08:12:49;21.80;99.90
52415;DHT22;38340;52.964;6.086;2023-07-28T08:15:15;21.80;99.90
52415;DHT22;38340;52.964;6.086;2023-07-28T08:17:41;21.70;99.90
52415;DHT22;38340;52.964;6.086;2023-07-28T08:20:07;21.50;99.90
52415;DHT22;38340;52.964;6.086;2023-07-28T08:22:33;21.30;99.90
52415;DHT22;38340;52.964;6.086;2023-07-28T08:24:59;21.30;99.90
52415;DHT22;38340;52.964;6.086;2023-07-28T08:27:25;21.40;99.90
52415;DHT22;38340;52.964;6.086;2023-07-28T08:29:50;21.80;99.90
52415;DHT22;38340;52.964;6.086;2023-07-28T08:32:16;22.00;99.90
52415;DHT22;38340;52.964;6.086;2023-07-28T08:34:42;21.90;99.90
52415;DHT22;38340;52.964;6.086;2023-07-28T08:37:08;22.10;99.90
52415;DHT22;38340;52.964;6.086;2023-07-28T08:39:34;22.30;99.90
52415;DHT22;38340;52.964;6.086;2023-07-28T08:42:01;22.40;99.90
52415;DHT22;38340;52.964;6.086;2023-07-28T08:44:30;22.50;99.90
52415;DHT22;38340;52.964;6.086;2023-07-28T08:46:56;22.60;99.90
52415;DHT22;38340;52.964;6.086;2023-07-28T08:49:22;22.30;99.90
52415;DHT22;38340;52.964;6.086;2023-07-28T08:51:52;22.10;99.90
52415;DHT22;38340;52.964;6.086;2023-07-28T08:54:23;22.10;99.90
52415;DHT22;38340;52.964;6.086;2023-07-28T08:56:49;22.30;99.90
52415;DHT22;38340;52.964;6.086;2023-07-28T08:59:26;22.60;99.90
52415;DHT22;38340;52.964;6.086;2023-07-28T09:01:54;22.90;99.90
52415;DHT22;38340;52.964;6.086;2023-07-28T09:04:21;23.10;99.90
52415;DHT22;38340;52.964;6.086;2023-07-28T09:06:48;23.00;99.90
52415;DHT22;38340;52.964;6.086;2023-07-28T09:09:15;23.00;99.90
52415;DHT22;38340;52.964;6.086;2023-07-28T09:11:52;23.10;99.90
52415;DHT22;38340;52.964;6.086;2023-07-28T09:14:20;23.10;99.90
52415;DHT22;38340;52.964;6.086;2023-07-28T09:16:47;22.60;99.90
52415;DHT22;38340;52.964;6.086;2023-07-28T09:19:13;22.80;99.90
52415;DHT22;38340;52.964;6.086;2023-07-28T09:21:41;22.80;99.90
52415;DHT22;38340;52.964;6.086;2023-07-28T09:24:09;23.00;99.90
52415;DHT22;38340;52.964;6.086;2023-07-28T09:29:17;23.00;99.90
52415;DHT22;38340;52.964;6.086;2023-07-28T09:31:44;23.00;99.90
52415;DHT22;38340;52.964;6.086;2023-07-28T09:34:11;22.70;99.90
52415;DHT22;38340;52.964;6.086;2023-07-28T09:36:37;22.80;99.90
52415;DHT22;38340;52.964;6.086;2023-07-28T09:39:05;23.00;99.90
52415;DHT22;38340;52.964;6.086;2023-07-28T09:41:37;23.10;99.90
52415;DHT22;38340;52.964;6.086;2023-07-28T09:44:04;23.40;99.90
52415;DHT22;38340;52.964;6.086;2023-07-28T09:46:33;23.40;99.90
52415;DHT22;38340;52.964;6.086;2023-07-28T09:49:04;23.40;99.90
52415;DHT22;38340;52.964;6.086;2023-07-28T09:51:31;23.50;99.90
52415;DHT22;38340;52.964;6.086;2023-07-28T09:54:12;23.60;99.90
52415;DHT22;38340;52.964;6.086;2023-07-28T09:56:38;23.50;99.90
52415;DHT22;38340;52.964;6.086;2023-07-28T09:59:11;23.60;99.90
52415;DHT22;38340;52.964;6.086;2023-07-28T10:01:38;23.80;99.90
52415;DHT22;38340;52.964;6.086;2023-07-28T10:04:05;23.80;99.90
52415;DHT22;38340;52.964;6.086;2023-07-28T10:06:32;23.90;99.90
52415;DHT22;38340;52.964;6.086;2023-07-28T10:08:59;23.90;99.90
52415;DHT22;38340;52.964;6.086;2023-07-28T10:11:25;24.40;99.90
52415;DHT22;38340;52.964;6.086;2023-07-28T10:13:54;24.50;99.90
52415;DHT22;38340;52.964;6.086;2023-07-28T10:16:38;24.60;99.90
52415;DHT22;38340;52.964;6.086;2023-07-28T10:19:05;24.30;99.90
52415;DHT22;38340;52.964;6.086;2023-07-28T10:21:31;24.30;99.90
52415;DHT22;38340;52.964;6.086;2023-07-28T10:24:04;24.30;99.90
52415;DHT22;38340;52.964;6.086;2023-07-28T10:26:40;24.50;99.90
52415;DHT22;38340;52.964;6.086;2023-07-28T10:29:15;24.40;99.90
52415;DHT22;38340;52.964;6.086;2023-07-28T10:31:54;24.30;99.90
52415;DHT22;38340;52.964;6.086;2023-07-28T10:34:22;24.60;99.90
52415;DHT22;38340;52.964;6.086;2023-07-28T10:36:57;24.80;99.90
52415;DHT22;38340;52.964;6.086;2023-07-28T10:39:24;24.60;99.90
52415;DHT22;38340;52.964;6.086;2023-07-28T10:42:08;24.60;99.90
52415;DHT22;38340;52.964;6.086;2023-07-28T10:44:34;24.70;99.90
52415;DHT22;38340;52.964;6.086;2023-07-28T10:47:01;24.60;99.90
52415;DHT22;38340;52.964;6.086;2023-07-28T10:49:27;24.80;99.90
52415;DHT22;38340;52.964;6.086;2023-07-28T10:51:53;24.60;99.90
52415;DHT22;38340;52.964;6.086;2023-07-28T10:54:19;24.60;99.90
52415;DHT22;38340;52.964;6.086;2023-07-28T10:56:49;24.50;99.90
52415;DHT22;38340;52.964;6.086;2023-07-28T10:59:15;24.40;99.90
52415;DHT22;38340;52.964;6.086;2023-07-28T11:01:41;24.60;99.90
52415;DHT22;38340;52.964;6.086;2023-07-28T11:06:38;24.50;99.90
52415;DHT22;38340;52.964;6.086;2023-07-28T11:09:06;24.60;99.90
52415;DHT22;38340;52.964;6.086;2023-07-28T11:11:33;24.70;99.90
52415;DHT22;38340;52.964;6.086;2023-07-28T11:14:00;24.90;99.90
52415;DHT22;38340;52.964;6.086;2023-07-28T11:16:25;24.90;99.90
52415;DHT22;38340;52.964;6.086;2023-07-28T11:18:51;24.90;99.90
52415;DHT22;38340;52.964;6.086;2023-07-28T11:21:22;24.90;99.90
52415;DHT22;38340;52.964;6.086;2023-07-28T11:23:48;24.60;99.90
52415;DHT22;38340;52.964;6.086;2023-07-28T11:26:14;24.50;99.90
52415;DHT22;38340;52.964;6.086;2023-07-28T11:28:39;24.40;99.90
52415;DHT22;38340;52.964;6.086;2023-07-28T11:31:05;24.10;99.90
52415;DHT22;38340;52.964;6.086;2023-07-28T11:33:31;24.00;99.90
52415;DHT22;38340;52.964;6.086;2023-07-28T11:35:57;24.00;99.90
52415;DHT22;38340;52.964;6.086;2023-07-28T11:38:23;24.00;99.90
52415;DHT22;38340;52.964;6.086;2023-07-28T11:40:49;24.00;99.90
52415;DHT22;38340;52.964;6.086;2023-07-28T11:43:17;24.20;99.90
52415;DHT22;38340;52.964;6.086;2023-07-28T11:45:43;24.50;99.90
52415;DHT22;38340;52.964;6.086;2023-07-28T11:48:09;24.80;99.90
52415;DHT22;38340;52.964;6.086;2023-07-28T11:50:41;24.90;99.90
52415;DHT22;38340;52.964;6.086;2023-07-28T11:53:09;25.40;99.90
52415;DHT22;38340;52.964;6.086;2023-07-28T11:55:35;25.50;99.90
52415;DHT22;38340;52.964;6.086;2023-07-28T11:58:02;25.70;99.90
52415;DHT22;38340;52.964;6.086;2023-07-28T12:00:35;25.60;99.90
52415;DHT22;38340;52.964;6.086;2023-07-28T12:03:08;25.80;99.90
52415;DHT22;38340;52.964;6.086;2023-07-28T12:05:41;25.60;99.90
52415;DHT22;38340;52.964;6.086;2023-07-28T12:08:39;25.50;99.90
52415;DHT22;38340;52.964;6.086;2023-07-28T12:11:05;25.50;99.90
52415;DHT22;38340;52.964;6.086;2023-07-28T12:13:50;25.60;99.90
52415;DHT22;38340;52.964;6.086;2023-07-28T12:16:41;25.40;99.90
52415;DHT22;38340;52.964;6.086;2023-07-28T12:19:13;25.30;99.90
52415;DHT22;38340;52.964;6.086;2023-07-28T12:21:39;25.40;99.90
52415;DHT22;38340;52.964;6.086;2023-07-28T12:24:05;25.80;99.90
52415;DHT22;38340;52.964;6.086;2023-07-28T12:26:30;26.00;99.90
52415;DHT22;38340;52.964;6.086;2023-07-28T12:28:56;26.20;99.90
52415;DHT22;38340;52.964;6.086;2023-07-28T12:31:22;26.00;1.00
52415;DHT22;38340;52.964;6.086;2023-07-28T12:33:47;25.80;99.90
52415;DHT22;38340;52.964;6.086;2023-07-28T12:36:13;26.00;99.90
52415;DHT22;38340;52.964;6.086;2023-07-28T12:38:39;26.20;99.90
52415;DHT22;38340;52.964;6.086;2023-07-28T12:41:04;26.10;99.90
52415;DHT22;38340;52.964;6.086;2023-07-28T12:43:30;25.90;14.20
52415;DHT22;38340;52.964;6.086;2023-07-28T12:45:56;25.60;99.90
52415;DHT22;38340;52.964;6.086;2023-07-28T12:48:21;26.00;99.90
52415;DHT22;38340;52.964;6.086;2023-07-28T12:50:47;26.20;99.90
52415;DHT22;38340;52.964;6.086;2023-07-28T12:53:13;26.50;99.90
52415;DHT22;38340;52.964;6.086;2023-07-28T12:55:38;26.40;99.90
52415;DHT22;38340;52.964;6.086;2023-07-28T12:58:04;26.30;1.00
52415;DHT22;38340;52.964;6.086;2023-07-28T13:00:30;25.50;1.00
52415;DHT22;38340;52.964;6.086;2023-07-28T13:02:55;25.70;99.90
52415;DHT22;38340;52.964;6.086;2023-07-28T13:05:21;25.80;99.90
52415;DHT22;38340;52.964;6.086;2023-07-28T13:07:47;25.50;99.90
52415;DHT22;38340;52.964;6.086;2023-07-28T13:10:13;25.40;99.90
52415;DHT22;38340;52.964;6.086;2023-07-28T13:12:38;25.10;99.90
52415;DHT22;38340;52.964;6.086;2023-07-28T13:15:05;25.10;99.90
52415;DHT22;38340;52.964;6.086;2023-07-28T13:17:31;25.10;99.90
52415;DHT22;38340;52.964;6.086;2023-07-28T13:19:56;25.40;99.90
52415;DHT22;38340;52.964;6.086;2023-07-28T13:22:23;25.70;99.90
52415;DHT22;38340;52.964;6.086;2023-07-28T13:24:49;25.90;99.90
52415;DHT22;38340;52.964;6.086;2023-07-28T13:27:14;25.90;99.90
52415;DHT22;38340;52.964;6.086;2023-07-28T13:29:40;25.70;99.90
52415;DHT22;38340;52.964;6.086;2023-07-28T13:32:16;25.50;99.90
52415;DHT22;38340;52.964;6.086;2023-07-28T13:34:42;25.50;99.90
52415;DHT22;38340;52.964;6.086;2023-07-28T13:37:07;25.20;99.90
52415;DHT22;38340;52.964;6.086;2023-07-28T13:39:33;25.20;99.90
52415;DHT22;38340;52.964;6.086;2023-07-28T13:41:59;25.10;99.90
52415;DHT22;38340;52.964;6.086;2023-07-28T13:44:25;25.10;99.90
52415;DHT22;38340;52.964;6.086;2023-07-28T13:46:50;25.20;99.90
52415;DHT22;38340;52.964;6.086;2023-07-28T13:49:16;25.10;99.90
52415;DHT22;38340;52.964;6.086;2023-07-28T13:51:41;25.00;99.90
52415;DHT22;38340;52.964;6.086;2023-07-28T13:54:07;25.10;99.90
52415;DHT22;38340;52.964;6.086;2023-07-28T13:56:33;25.10;99.90
52415;DHT22;38340;52.964;6.086;2023-07-28T13:58:59;25.10;99.90
52415;DHT22;38340;52.964;6.086;2023-07-28T14:01:24;25.30;99.90
52415;DHT22;38340;52.964;6.086;2023-07-28T14:03:50;25.30;99.90
52415;DHT22;38340;52.964;6.086;2023-07-28T14:06:16;25.40;99.90
52415;DHT22;38340;52.964;6.086;2023-07-28T14:08:41;25.40;99.90
52415;DHT22;38340;52.964;6.086;2023-07-28T14:11:07;25.20;99.90
52415;DHT22;38340;52.964;6.086;2023-07-28T14:13:33;25.30;99.90
52415;DHT22;38340;52.964;6.086;2023-07-28T14:15:59;25.60;99.90
52415;DHT22;38340;52.964;6.086;2023-07-28T14:18:24;25.80;99.90
52415;DHT22;38340;52.964;6.086;2023-07-28T14:20:50;25.90;99.90
52415;DHT22;38340;52.964;6.086;2023-07-28T14:23:26;25.60;99.90
52415;DHT22;38340;52.964;6.086;2023-07-28T14:25:53;25.70;99.90
52415;DHT22;38340;52.964;6.086;2023-07-28T14:28:19;25.80;99.90
52415;DHT22;38340;52.964;6.086;2023-07-28T14:30:45;25.70;99.90
52415;DHT22;38340;52.964;6.086;2023-07-28T14:33:16;25.60;99.90
52415;DHT22;38340;52.964;6.086;2023-07-28T14:35:44;25.70;99.90
52415;DHT22;38340;52.964;6.086;2023-07-28T14:38:11;25.60;99.90
52415;DHT22;38340;52.964;6.086;2023-07-28T14:40:36;25.30;99.90
52415;DHT22;38340;52.964;6.086;2023-07-28T14:43:06;25.30;99.90
52415;DHT22;38340;52.964;6.086;2023-07-28T14:45:32;25.40;99.90
52415;DHT22;38340;52.964;6.086;2023-07-28T14:47:58;25.20;99.90
52415;DHT22;38340;52.964;6.086;2023-07-28T14:50:25;25.20;99.90
52415;DHT22;38340;52.964;6.086;2023-07-28T14:52:51;25.10;99.90
52415;DHT22;38340;52.964;6.086;2023-07-28T14:55:16;24.90;99.90
52415;DHT22;38340;52.964;6.086;2023-07-28T14:57:42;25.00;99.90
52415;DHT22;38340;52.964;6.086;2023-07-28T15:00:08;25.10;99.90
52415;DHT22;38340;52.964;6.086;2023-07-28T15:02:35;25.00;99.90
52415;DHT22;38340;52.964;6.086;2023-07-28T15:05:02;24.90;99.90
52415;DHT22;38340;52.964;6.086;2023-07-28T15:07:27;25.00;99.90
52415;DHT22;38340;52.964;6.086;2023-07-28T15:09:53;25.00;99.90
52415;DHT22;38340;52.964;6.086;2023-07-28T15:12:19;25.30;99.90
52415;DHT22;38340;52.964;6.086;2023-07-28T15:14:44;25.00;99.90
52415;DHT22;38340;52.964;6.086;2023-07-28T15:17:10;25.00;99.90
52415;DHT22;38340;52.964;6.086;2023-07-28T15:19:36;24.60;99.90
52415;DHT22;38340;52.964;6.086;2023-07-28T15:22:02;24.40;99.90
52415;DHT22;38340;52.964;6.086;2023-07-28T15:24:28;24.50;99.90
52415;DHT22;38340;52.964;6.086;2023-07-28T15:26:54;24.50;99.90
52415;DHT22;38340;52.964;6.086;2023-07-28T15:29:19;24.80;99.90
52415;DHT22;38340;52.964;6.086;2023-07-28T15:31:45;24.90;99.90
52415;DHT22;38340;52.964;6.086;2023-07-28T15:34:11;24.90;99.90
52415;DHT22;38340;52.964;6.086;2023-07-28T15:36:37;24.90;99.90